MAL206 KSGF-KSGF
Flight info
| Callsign | MAL206 |
|---|---|
| Flight time | N/A |
| Altitude | VFR |
| Route | |
| Aircraft | C208/L-VGD/C |
Departure
| Time | 2026-05-08 13:49 |
|---|---|
| Airport | Springfield Branson National Airport (KSGF) |
Arrival
| Time | N/A |
|---|---|
| Airport | Springfield Branson National Airport (KSGF) |
| Time | Latitude | Longitude | Altitude | Speed | Heading |
|---|---|---|---|---|---|
| 2026-05-08 13:45 | 37.24715 | -93.38046 | 1268 ft | 0 kts | 110° |
| 2026-05-08 13:46 | 37.24717 | -93.38042 | 1268 ft | 2 kts | 34° |
| 2026-05-08 13:46 | 37.24764 | -93.38079 | 1268 ft | 13 kts | 289° |
| 2026-05-08 13:47 | 37.24825 | -93.38116 | 1268 ft | 13 kts | 17° |
| 2026-05-08 13:47 | 37.24932 | -93.38083 | 1268 ft | 19 kts | 16° |
| 2026-05-08 13:47 | 37.25083 | -93.38008 | 1268 ft | 27 kts | 22° |
| 2026-05-08 13:47 | 37.25233 | -93.37937 | 1268 ft | 20 kts | 22° |
| 2026-05-08 13:48 | 37.25321 | -93.37979 | 1266 ft | 14 kts | 289° |
| 2026-05-08 13:48 | 37.25302 | -93.38057 | 1266 ft | 6 kts | 206° |
| 2026-05-08 13:48 | 37.25229 | -93.38095 | 1267 ft | 27 kts | 202° |
| 2026-05-08 13:48 | 37.24926 | -93.38246 | 1270 ft | 65 kts | 199° |
| 2026-05-08 13:49 | 37.24451 | -93.38495 | 1386 ft | 76 kts | 202° |
| 2026-05-08 13:49 | 37.23955 | -93.38756 | 1596 ft | 79 kts | 201° |
| 2026-05-08 13:49 | 37.23402 | -93.39039 | 1766 ft | 85 kts | 194° |
| 2026-05-08 13:49 | 37.22860 | -93.38867 | 1963 ft | 93 kts | 141° |
| 2026-05-08 13:50 | 37.22631 | -93.38015 | 2176 ft | 110 kts | 106° |
| 2026-05-08 13:50 | 37.22725 | -93.37036 | 2414 ft | 121 kts | 70° |
| 2026-05-08 13:50 | 37.23354 | -93.36259 | 2513 ft | 137 kts | 36° |
| 2026-05-08 13:50 | 37.24186 | -93.35618 | 2706 ft | 140 kts | 27° |
| 2026-05-08 13:51 | 37.25054 | -93.35090 | 2948 ft | 139 kts | 19° |
| 2026-05-08 13:51 | 37.25949 | -93.34605 | 3162 ft | 142 kts | 19° |
| 2026-05-08 13:51 | 37.26862 | -93.34133 | 3329 ft | 142 kts | 18° |
| 2026-05-08 13:51 | 37.27774 | -93.33662 | 3520 ft | 142 kts | 18° |
| 2026-05-08 13:52 | 37.28685 | -93.33192 | 3693 ft | 140 kts | 12° |
| 2026-05-08 13:52 | 37.29628 | -93.33066 | 3887 ft | 136 kts | 354° |
| 2026-05-08 13:52 | 37.30544 | -93.33101 | 4294 ft | 120 kts | 343° |
| 2026-05-08 13:52 | 37.31339 | -93.33445 | 4519 ft | 124 kts | 340° |
| 2026-05-08 13:53 | 37.32197 | -93.33479 | 4735 ft | 122 kts | 360° |
| 2026-05-08 13:53 | 37.33020 | -93.33408 | 4963 ft | 118 kts | 358° |
| 2026-05-08 13:53 | 37.33829 | -93.33456 | 5177 ft | 116 kts | 347° |
| 2026-05-08 13:53 | 37.34636 | -93.33572 | 5352 ft | 118 kts | 348° |
| 2026-05-08 13:54 | 37.35472 | -93.33675 | 5473 ft | 127 kts | 350° |
| 2026-05-08 13:54 | 37.36411 | -93.33753 | 5476 ft | 142 kts | 352° |
| 2026-05-08 13:54 | 37.37444 | -93.33817 | 5489 ft | 155 kts | 353° |
| 2026-05-08 13:54 | 37.38549 | -93.33880 | 5465 ft | 162 kts | 353° |
| 2026-05-08 13:55 | 37.39689 | -93.33960 | 5459 ft | 166 kts | 353° |
| 2026-05-08 13:55 | 37.40855 | -93.34048 | 5446 ft | 169 kts | 352° |
| 2026-05-08 13:55 | 37.43216 | -93.34238 | 5457 ft | 171 kts | 351° |
| 2026-05-08 13:56 | 37.44410 | -93.34332 | 5458 ft | 172 kts | 351° |
| 2026-05-08 13:56 | 37.45609 | -93.34424 | 5460 ft | 173 kts | 352° |
| 2026-05-08 13:56 | 37.46816 | -93.34520 | 5465 ft | 175 kts | 352° |
| 2026-05-08 13:56 | 37.48032 | -93.34611 | 5458 ft | 175 kts | 352° |
| 2026-05-08 13:57 | 37.49250 | -93.34709 | 5465 ft | 176 kts | 352° |
| 2026-05-08 13:57 | 37.50472 | -93.34811 | 5454 ft | 176 kts | 351° |
| 2026-05-08 13:57 | 37.51696 | -93.34908 | 5460 ft | 176 kts | 352° |
| 2026-05-08 13:57 | 37.52919 | -93.35000 | 5457 ft | 176 kts | 352° |
| 2026-05-08 13:58 | 37.54144 | -93.35099 | 5455 ft | 177 kts | 352° |
| 2026-05-08 13:58 | 37.55361 | -93.35196 | 5453 ft | 177 kts | 351° |
| 2026-05-08 13:58 | 37.56596 | -93.35294 | 5464 ft | 179 kts | 352° |
| 2026-05-08 13:58 | 37.57838 | -93.35386 | 5449 ft | 178 kts | 352° |
| 2026-05-08 13:59 | 37.59077 | -93.35481 | 5445 ft | 178 kts | 352° |
| 2026-05-08 13:59 | 37.60310 | -93.35576 | 5449 ft | 177 kts | 352° |
| 2026-05-08 13:59 | 37.61523 | -93.35672 | 5229 ft | 168 kts | 352° |
| 2026-05-08 13:59 | 37.62642 | -93.35731 | 4882 ft | 155 kts | 352° |
| 2026-05-08 14:00 | 37.63715 | -93.35805 | 4420 ft | 156 kts | 349° |
| 2026-05-08 14:00 | 37.64788 | -93.35903 | 4003 ft | 154 kts | 348° |
| 2026-05-08 14:00 | 37.65841 | -93.36030 | 3685 ft | 148 kts | 344° |
| 2026-05-08 14:00 | 37.66842 | -93.36194 | 3373 ft | 144 kts | 343° |
| 2026-05-08 14:01 | 37.67833 | -93.36322 | 3072 ft | 142 kts | 343° |
| 2026-05-08 14:01 | 37.68838 | -93.36367 | 2726 ft | 148 kts | 344° |
| 2026-05-08 14:01 | 37.69889 | -93.36450 | 2659 ft | 148 kts | 340° |
| 2026-05-08 14:01 | 37.70839 | -93.36632 | 2794 ft | 131 kts | 330° |
| 2026-05-08 14:02 | 37.71743 | -93.36898 | 2758 ft | 143 kts | 343° |
| 2026-05-08 14:02 | 37.72774 | -93.36898 | 2735 ft | 149 kts | 350° |
| 2026-05-08 14:02 | 37.73806 | -93.36883 | 2668 ft | 152 kts | 348° |
| 2026-05-08 14:02 | 37.74855 | -93.36902 | 2563 ft | 157 kts | 348° |
| 2026-05-08 14:03 | 37.75951 | -93.36879 | 2567 ft | 153 kts | 351° |
| 2026-05-08 14:03 | 37.77050 | -93.36866 | 2387 ft | 162 kts | 348° |
| 2026-05-08 14:03 | 37.78160 | -93.36873 | 2358 ft | 158 kts | 347° |
| 2026-05-08 14:03 | 37.79266 | -93.36969 | 2227 ft | 158 kts | 342° |
| 2026-05-08 14:04 | 37.80329 | -93.37109 | 2245 ft | 149 kts | 340° |
| 2026-05-08 14:04 | 37.81350 | -93.37335 | 2225 ft | 150 kts | 340° |
| 2026-05-08 14:04 | 37.82422 | -93.37492 | 2069 ft | 153 kts | 343° |
| 2026-05-08 14:04 | 37.83434 | -93.37493 | 2081 ft | 154 kts | 20° |
| 2026-05-08 14:05 | 37.83702 | -93.36542 | 2161 ft | 101 kts | 151° |
| 2026-05-08 14:05 | 37.83110 | -93.36473 | 1925 ft | 82 kts | 198° |
| 2026-05-08 14:05 | 37.82584 | -93.36653 | 1574 ft | 76 kts | 202° |
| 2026-05-08 14:05 | 37.82078 | -93.36889 | 1167 ft | 80 kts | 195° |
| 2026-05-08 14:06 | 37.81537 | -93.36966 | 965 ft | 74 kts | 185° |
| 2026-05-08 14:06 | 37.81084 | -93.37005 | 910 ft | 52 kts | 183° |
| 2026-05-08 14:06 | 37.80826 | -93.37019 | 906 ft | 25 kts | 181° |
| 2026-05-08 14:06 | 37.80752 | -93.37046 | 907 ft | 2 kts | 198° |
| 2026-05-08 14:07 | 37.80748 | -93.37037 | 907 ft | 0 kts | 73° |